createdAt,value
2024-02-24T00:00:34.824Z,101191.72
2024-02-24T00:03:01.972Z,101175.91
2024-02-24T00:05:29.125Z,101188.19
2024-02-24T00:07:56.676Z,101189.06
2024-02-24T00:10:24.089Z,101183.84
2024-02-24T00:12:51.198Z,101174.16
2024-02-24T00:15:18.462Z,101178.56
2024-02-24T00:17:45.838Z,101184.66
2024-02-24T00:20:13.330Z,101152.22
2024-02-24T00:22:40.756Z,101178.53
2024-02-24T00:25:08.117Z,101164.53
2024-02-24T00:27:35.248Z,101178.53
2024-02-24T00:30:03.137Z,101177.69
2024-02-24T00:32:30.424Z,101175.97
2024-02-24T00:34:57.827Z,101167.19
2024-02-24T00:37:25.045Z,101177.72
2024-02-24T00:39:53.032Z,101177.75
2024-02-24T00:42:20.460Z,101187.44
2024-02-24T00:44:47.765Z,101157.63
2024-02-24T00:47:14.915Z,101179.56
2024-02-24T00:49:42.221Z,101163.78
2024-02-24T00:52:09.601Z,101176.06
2024-02-24T00:54:36.747Z,101164.69
2024-02-24T00:57:04.661Z,101163.81
2024-02-24T00:59:32.132Z,101169.09
2024-02-24T01:01:59.323Z,101170.00
2024-02-24T01:04:26.826Z,101158.63
2024-02-24T01:06:54.285Z,101164.75
2024-02-24T01:09:22.104Z,101173.56
2024-02-24T01:11:49.557Z,101164.75
2024-02-24T01:14:17.158Z,101150.81
2024-02-24T01:16:45.876Z,101149.03
2024-02-24T01:19:13.417Z,101155.16
2024-02-24T01:21:44.361Z,101147.31
2024-02-24T01:24:12.557Z,101160.44
2024-02-24T01:26:39.770Z,101167.47
2024-02-24T01:29:07.148Z,101161.34
2024-02-24T01:31:34.407Z,101157.81
2024-02-24T01:34:01.761Z,101139.44
2024-02-24T01:36:29.172Z,101156.97
2024-02-24T01:38:56.442Z,101149.06
2024-02-24T01:41:23.759Z,101158.72
2024-02-24T01:43:51.015Z,101156.94
2024-02-24T01:46:18.322Z,101162.25
2024-02-24T01:48:45.713Z,101155.22
2024-02-24T01:51:14.728Z,101147.38
2024-02-24T01:53:43.478Z,101164.88
2024-02-24T01:56:11.333Z,101158.75
2024-02-24T01:58:39.522Z,101166.66
2024-02-24T02:01:09.988Z,101153.53
2024-02-24T02:03:37.595Z,101152.66
2024-02-24T02:06:05.636Z,101159.66
2024-02-24T02:08:33.336Z,101157.03
2024-02-24T02:11:00.622Z,101157.06
2024-02-24T02:13:28.098Z,101158.81
2024-02-24T02:15:58.125Z,101148.28
2024-02-24T02:18:25.617Z,101144.78
2024-02-24T02:20:53.808Z,101122.00
2024-02-24T02:23:21.493Z,101137.75
2024-02-24T02:25:48.911Z,101127.25
2024-02-24T02:28:16.462Z,101138.66
2024-02-24T02:30:43.872Z,101123.75
2024-02-24T02:33:11.172Z,101136.03
2024-02-24T02:35:38.801Z,101135.16
2024-02-24T02:38:09.634Z,101142.19
2024-02-24T02:40:37.460Z,101136.94
2024-02-24T02:43:04.789Z,101132.56
2024-02-24T02:45:32.005Z,101139.63
2024-02-24T02:47:59.185Z,101136.09
2024-02-24T02:50:26.588Z,101147.50
2024-02-24T02:52:53.864Z,101150.13
2024-02-24T02:55:22.235Z,101130.84
2024-02-24T02:57:50.469Z,101145.75
2024-02-24T03:00:18.324Z,101151.03
2024-02-24T03:02:45.606Z,101155.41
2024-02-24T03:05:13.221Z,101157.16
2024-02-24T03:07:40.334Z,101152.78
2024-02-24T03:10:08.584Z,101152.75
2024-02-24T03:12:35.943Z,101158.03
2024-02-24T03:15:04.060Z,101144.03
2024-02-24T03:17:31.329Z,101127.34
2024-02-24T03:19:58.782Z,101156.31
2024-02-24T03:22:28.756Z,101153.69
2024-02-24T03:24:56.114Z,101151.91
2024-02-24T03:27:23.280Z,101151.03
2024-02-24T03:29:50.431Z,101151.03
2024-02-24T03:32:17.745Z,101147.53
2024-02-24T03:34:44.972Z,101152.78
2024-02-24T03:37:12.303Z,101153.66
2024-02-24T03:39:39.576Z,101162.44
2024-02-24T03:42:06.808Z,101149.28
2024-02-24T03:44:34.023Z,101152.78
2024-02-24T03:47:01.268Z,101151.06
2024-02-24T03:49:28.901Z,101173.81
2024-02-24T03:51:56.299Z,101154.53
2024-02-24T03:54:24.297Z,101172.09
2024-02-24T03:56:52.224Z,101157.19
2024-02-24T03:59:19.480Z,101163.31
2024-02-24T04:01:46.873Z,101165.06
2024-02-24T04:04:15.128Z,101171.19
2024-02-24T04:06:45.439Z,101158.06
2024-02-24T04:09:12.901Z,101171.19
2024-02-24T04:11:40.828Z,101175.59
2024-02-24T04:14:08.490Z,101176.47
2024-02-24T04:16:35.604Z,101175.59
2024-02-24T04:19:03.229Z,101179.09
2024-02-24T04:21:30.412Z,101188.75
2024-02-24T04:23:57.931Z,101184.34
2024-02-24T04:26:25.587Z,101194.91
2024-02-24T04:28:52.806Z,101189.63
2024-02-24T04:31:20.031Z,101200.16
2024-02-24T04:33:47.602Z,101198.41
2024-02-24T04:36:14.982Z,101188.75
2024-02-24T04:38:42.443Z,101206.28
2024-02-24T04:41:09.870Z,101210.69
2024-02-24T04:43:37.427Z,101189.63
2024-02-24T04:46:05.516Z,101206.31
2024-02-24T04:48:33.348Z,101196.66
2024-02-24T04:51:03.150Z,101213.31
2024-02-24T04:53:30.977Z,101204.53
2024-02-24T04:55:58.371Z,101214.19
2024-02-24T04:58:26.300Z,101210.69
2024-02-24T05:00:53.911Z,101218.59
2024-02-24T05:03:21.368Z,101209.81
2024-02-24T05:05:48.649Z,101208.03
2024-02-24T05:08:16.135Z,101196.63
2024-02-24T05:10:43.929Z,101219.44
2024-02-24T05:13:11.162Z,101215.06
2024-02-24T05:15:38.486Z,101218.59
2024-02-24T05:18:06.184Z,101216.81
2024-02-24T05:20:33.570Z,101200.13
2024-02-24T05:23:02.558Z,101214.19
2024-02-24T05:25:32.045Z,101202.78
2024-02-24T05:27:59.873Z,101211.53
2024-02-24T05:30:27.092Z,101222.09
2024-02-24T05:32:58.585Z,101216.81
2024-02-24T05:35:27.157Z,101230.88
2024-02-24T05:37:54.375Z,101225.59
2024-02-24T05:40:21.801Z,101238.78
2024-02-24T05:42:49.129Z,101229.88
2024-02-24T05:45:17.865Z,101237.41
2024-02-24T05:47:45.300Z,101212.16
2024-02-24T05:50:12.984Z,101240.19
2024-02-24T05:52:40.210Z,101227.81
2024-02-24T05:55:11.026Z,101234.16
2024-02-24T05:57:38.835Z,101231.91
2024-02-24T06:00:07.090Z,101218.66
2024-02-24T06:02:39.479Z,101244.28
2024-02-24T06:05:07.324Z,101244.75
2024-02-24T06:07:34.996Z,101244.81
2024-02-24T06:10:02.538Z,101245.75
2024-02-24T06:12:29.815Z,101243.41
2024-02-24T06:14:57.176Z,101237.94
2024-02-24T06:17:24.494Z,101237.31
2024-02-24T06:19:51.839Z,101236.56
2024-02-24T06:22:19.116Z,101259.78
2024-02-24T06:24:46.409Z,101257.50
2024-02-24T06:27:13.925Z,101263.78
2024-02-24T06:29:43.207Z,101262.69
2024-02-24T06:32:10.497Z,101257.22
2024-02-24T06:34:47.003Z,101259.84
2024-02-24T06:37:14.623Z,101250.88
2024-02-24T06:39:41.884Z,101256.81
2024-02-24T06:42:09.201Z,101255.41
2024-02-24T06:44:36.472Z,101257.75
2024-02-24T06:47:14.143Z,101231.63
2024-02-24T06:49:49.183Z,101246.84
2024-02-24T06:52:16.479Z,101248.88
2024-02-24T06:54:43.883Z,101238.50
2024-02-24T06:57:11.158Z,101241.59
2024-02-24T06:59:38.416Z,101242.25
2024-02-24T07:02:05.821Z,101242.03
2024-02-24T07:04:34.348Z,101243.47
2024-02-24T07:07:01.591Z,101251.34
2024-02-24T07:09:29.051Z,101259.66
2024-02-24T07:11:57.183Z,101257.50
2024-02-24T07:14:24.593Z,101263.13
2024-02-24T07:16:51.715Z,101251.56
2024-02-24T07:19:18.978Z,101264.81
2024-02-24T07:21:46.084Z,101256.69
2024-02-24T07:24:14.531Z,101261.13
2024-02-24T07:26:45.998Z,101254.41
2024-02-24T07:29:15.350Z,101260.97
2024-02-24T07:31:42.995Z,101252.63
2024-02-24T07:34:10.543Z,101271.19
2024-02-24T07:36:38.067Z,101268.75
2024-02-24T07:39:06.418Z,101273.84
2024-02-24T07:41:33.860Z,101260.59
2024-02-24T07:44:01.033Z,101256.59
2024-02-24T07:46:31.339Z,101258.25
2024-02-24T07:48:59.875Z,101262.81
2024-02-24T07:51:27.988Z,101267.34
2024-02-24T07:53:55.838Z,101277.94
2024-02-24T07:56:23.866Z,101265.72
2024-02-24T07:58:52.141Z,101278.78
2024-02-24T08:01:19.353Z,101271.53
2024-02-24T08:03:47.053Z,101271.50
2024-02-24T08:06:14.223Z,101254.56
2024-02-24T08:08:41.866Z,101277.59
2024-02-24T08:11:09.438Z,101271.22
2024-02-24T08:13:43.370Z,101266.22
2024-02-24T08:16:11.042Z,101275.66
2024-02-24T08:18:38.374Z,101278.72
2024-02-24T08:21:08.164Z,101283.59
2024-02-24T08:23:36.382Z,101272.72
2024-02-24T08:26:04.155Z,101286.31
2024-02-24T08:28:31.640Z,101282.59
2024-02-24T08:31:01.339Z,101275.44
2024-02-24T08:33:29.023Z,101282.44
2024-02-24T08:35:56.753Z,101265.31
2024-02-24T08:38:24.374Z,101267.28
2024-02-24T08:40:51.749Z,101282.88
2024-02-24T08:43:18.994Z,101282.13
2024-02-24T08:45:46.396Z,101265.41
2024-02-24T08:48:14.334Z,101267.03
2024-02-24T08:50:41.937Z,101269.25
2024-02-24T08:53:09.568Z,101283.97
2024-02-24T08:55:37.100Z,101276.75
2024-02-24T08:58:04.902Z,101256.16
2024-02-24T09:00:32.893Z,101272.59
2024-02-24T09:03:00.235Z,101272.91
2024-02-24T09:05:27.727Z,101283.09
2024-02-24T09:07:55.255Z,101262.47
2024-02-24T09:10:22.603Z,101277.19
2024-02-24T09:12:50.103Z,101281.97
2024-02-24T09:15:17.496Z,101281.72
2024-02-24T09:17:45.091Z,101282.16
2024-02-24T09:20:13.124Z,101284.50
2024-02-24T09:22:42.815Z,101286.25
2024-02-24T09:25:19.311Z,101283.56
2024-02-24T09:27:50.172Z,101279.38
2024-02-24T09:30:17.471Z,101276.00
2024-02-24T09:32:45.160Z,101286.97
2024-02-24T09:35:12.839Z,101287.25
2024-02-24T09:37:40.154Z,101282.47
2024-02-24T09:40:08.210Z,101275.22
2024-02-24T09:42:35.754Z,101283.59
2024-02-24T09:45:06.389Z,101286.63
2024-02-24T09:47:33.993Z,101290.03
2024-02-24T09:50:02.289Z,101281.34
2024-02-24T09:52:32.580Z,101282.78
2024-02-24T09:55:00.038Z,101275.59
2024-02-24T09:57:31.763Z,101285.75
2024-02-24T09:59:59.410Z,101287.91
2024-02-24T10:02:28.177Z,101284.28
2024-02-24T10:04:56.143Z,101280.25
2024-02-24T10:07:23.977Z,101260.09
2024-02-24T10:09:51.458Z,101253.59
2024-02-24T10:12:18.797Z,101265.25
2024-02-24T10:14:46.219Z,101260.50
2024-02-24T10:17:13.467Z,101264.09
2024-02-24T10:19:41.169Z,101262.44
2024-02-24T10:22:08.672Z,101252.22
2024-02-24T10:24:36.295Z,101247.78
2024-02-24T10:27:04.298Z,101236.88
2024-02-24T10:29:32.365Z,101249.88
2024-02-24T10:32:00.058Z,101251.94
2024-02-24T10:34:28.968Z,101237.09
2024-02-24T10:37:00.500Z,101245.34
2024-02-24T10:39:28.344Z,101243.84
2024-02-24T10:41:55.890Z,101239.44
2024-02-24T10:44:24.054Z,101240.63
2024-02-24T10:46:51.849Z,101241.03
2024-02-24T10:49:19.568Z,101239.34
2024-02-24T10:51:51.079Z,101236.47
2024-02-24T10:54:23.395Z,101222.91
2024-02-24T10:57:01.679Z,101210.94
2024-02-24T10:59:33.087Z,101205.03
2024-02-24T11:02:12.640Z,101207.16
2024-02-24T11:04:41.811Z,101189.16
2024-02-24T11:07:17.413Z,101228.63
2024-02-24T11:09:48.739Z,101220.19
2024-02-24T11:12:16.497Z,101205.56
2024-02-24T11:14:45.794Z,101196.97
2024-02-24T11:17:13.785Z,101207.16
2024-02-24T11:19:44.024Z,101206.31
2024-02-24T11:22:19.358Z,101173.28
2024-02-24T11:24:47.542Z,101195.75
2024-02-24T11:27:14.976Z,101194.94
2024-02-24T11:29:42.389Z,101198.13
2024-02-24T11:32:16.054Z,101174.41
2024-02-24T11:34:45.553Z,101170.44
2024-02-24T11:37:17.378Z,101178.56
2024-02-24T11:39:46.177Z,101175.88
2024-02-24T11:42:13.762Z,101178.84
2024-02-24T11:44:46.263Z,101176.91
2024-02-24T11:47:18.657Z,101180.47
2024-02-24T11:49:50.639Z,101182.91
2024-02-24T11:52:18.511Z,101169.88
2024-02-24T11:54:46.829Z,101172.25
2024-02-24T11:57:15.007Z,101153.66
2024-02-24T11:59:42.546Z,101119.56
2024-02-24T12:02:10.183Z,101123.38
2024-02-24T12:04:37.499Z,101159.44
2024-02-24T12:07:06.418Z,101148.22
2024-02-24T12:09:33.853Z,101157.94
2024-02-24T12:12:02.728Z,101158.25
2024-02-24T12:14:32.998Z,101159.09
2024-02-24T12:17:00.870Z,101153.56
2024-02-24T12:19:29.814Z,101142.84
2024-02-24T12:21:57.214Z,101141.13
2024-02-24T12:24:31.175Z,101144.00
2024-02-24T12:27:05.079Z,101148.75
2024-02-24T12:29:32.736Z,101143.88
2024-02-24T12:32:00.181Z,101139.78
2024-02-24T12:34:27.899Z,101107.47
2024-02-24T12:36:57.378Z,101151.88
2024-02-24T12:39:27.728Z,101142.53
2024-02-24T12:41:55.174Z,101137.53
2024-02-24T12:44:23.210Z,101136.06
2024-02-24T12:46:51.219Z,101134.94
2024-02-24T12:49:18.915Z,101124.91
2024-02-24T12:51:55.787Z,101151.81
2024-02-24T12:54:23.243Z,101140.88
2024-02-24T12:56:50.738Z,101136.47
2024-02-24T12:59:20.321Z,101130.47
2024-02-24T13:01:47.619Z,101143.66
2024-02-24T13:04:15.551Z,101148.69
2024-02-24T13:06:43.571Z,101139.88
2024-02-24T13:09:11.232Z,101152.34
2024-02-24T13:11:38.902Z,101125.34
2024-02-24T13:14:06.388Z,101139.25
2024-02-24T13:16:33.861Z,101128.13
2024-02-24T13:19:01.489Z,101136.56
2024-02-24T13:21:29.077Z,101122.09
2024-02-24T13:23:56.399Z,101137.63
2024-02-24T13:26:23.571Z,101134.03
2024-02-24T13:28:50.980Z,101123.34
2024-02-24T13:31:23.119Z,101144.41
2024-02-24T13:33:58.268Z,101129.75
2024-02-24T13:36:26.482Z,101120.34
2024-02-24T13:38:54.939Z,101128.47
2024-02-24T13:41:23.033Z,101136.13
2024-02-24T13:43:50.381Z,101119.47
2024-02-24T13:46:18.549Z,101124.22
2024-02-24T13:48:46.878Z,101133.03
2024-02-24T13:51:14.407Z,101105.66
2024-02-24T13:53:41.793Z,101126.16
2024-02-24T13:56:09.500Z,101114.00
2024-02-24T13:58:38.722Z,101111.47
2024-02-24T14:01:06.117Z,101124.97
2024-02-24T14:03:33.334Z,101117.38
2024-02-24T14:06:00.782Z,101144.03
2024-02-24T14:08:28.460Z,101134.06
2024-02-24T14:10:56.363Z,101130.31
2024-02-24T14:13:23.755Z,101146.50
2024-02-24T14:15:52.042Z,101140.78
2024-02-24T14:18:19.552Z,101123.03
2024-02-24T14:20:46.937Z,101131.28
2024-02-24T14:23:14.289Z,101114.19
2024-02-24T14:25:44.491Z,101130.25
2024-02-24T14:28:12.271Z,101102.47
2024-02-24T14:30:40.106Z,101137.41
2024-02-24T14:33:08.331Z,101136.75
2024-02-24T14:35:39.778Z,101130.00
2024-02-24T14:38:07.516Z,101137.13
2024-02-24T14:40:35.284Z,101137.47
2024-02-24T14:43:02.827Z,101115.34
2024-02-24T14:45:31.772Z,101142.69
2024-02-24T14:48:01.541Z,101138.47
2024-02-24T14:50:30.515Z,101136.94
2024-02-24T14:52:57.816Z,101132.66
2024-02-24T14:55:25.274Z,101137.34
2024-02-24T14:57:52.724Z,101114.78
2024-02-24T15:00:20.429Z,101134.00
2024-02-24T15:02:58.298Z,101133.31
2024-02-24T15:05:32.044Z,101130.13
2024-02-24T15:07:59.436Z,101122.50
2024-02-24T15:10:26.892Z,101135.84
2024-02-24T15:12:54.337Z,101135.19
2024-02-24T15:15:21.686Z,101115.31
2024-02-24T15:17:49.613Z,101132.97
2024-02-24T15:20:17.138Z,101137.63
2024-02-24T15:22:44.641Z,101117.59
2024-02-24T15:25:12.085Z,101145.78
2024-02-24T15:27:39.409Z,101138.94
2024-02-24T15:30:07.606Z,101155.09
2024-02-24T15:32:35.254Z,101119.69
2024-02-24T15:35:02.616Z,101152.84
2024-02-24T15:37:29.995Z,101151.47
2024-02-24T15:39:57.298Z,101160.44
2024-02-24T15:42:24.460Z,101139.66
2024-02-24T15:44:51.845Z,101141.50
2024-02-24T15:47:19.479Z,101151.28
2024-02-24T15:49:47.080Z,101142.00
2024-02-24T15:52:15.994Z,101146.47
2024-02-24T15:54:43.246Z,101130.25
2024-02-24T15:57:10.389Z,101148.88
2024-02-24T15:59:37.805Z,101153.50
2024-02-24T16:02:05.441Z,101145.75
2024-02-24T16:04:34.172Z,101155.75
2024-02-24T16:07:02.074Z,101149.81
2024-02-24T16:09:31.180Z,101143.03
2024-02-24T16:11:58.384Z,101132.09
2024-02-24T16:14:25.803Z,101131.34
2024-02-24T16:16:53.210Z,101141.38
2024-02-24T16:19:20.908Z,101129.16
2024-02-24T16:21:49.007Z,101154.72
2024-02-24T16:24:16.469Z,101144.59
2024-02-24T16:26:43.677Z,101152.97
2024-02-24T16:29:11.220Z,101175.06
2024-02-24T16:31:38.730Z,101181.41
2024-02-24T16:34:06.493Z,101179.81
2024-02-24T16:36:35.534Z,101184.44
2024-02-24T16:39:05.900Z,101171.50
2024-02-24T16:41:33.447Z,101185.66
2024-02-24T16:44:00.654Z,101195.56
2024-02-24T16:46:28.908Z,101172.28
2024-02-24T16:48:56.225Z,101172.31
2024-02-24T16:51:23.653Z,101196.84
2024-02-24T16:53:51.049Z,101196.19
2024-02-24T16:56:18.485Z,101202.38
2024-02-24T16:58:46.077Z,101195.66
2024-02-24T17:01:13.486Z,101190.59
2024-02-24T17:03:41.225Z,101207.13
2024-02-24T17:06:08.582Z,101215.03
2024-02-24T17:08:35.783Z,101198.50
2024-02-24T17:11:03.345Z,101213.38
2024-02-24T17:13:31.057Z,101215.09
2024-02-24T17:15:58.215Z,101215.31
2024-02-24T17:18:31.435Z,101204.91
2024-02-24T17:21:04.143Z,101225.13
2024-02-24T17:23:31.479Z,101202.56
2024-02-24T17:26:00.216Z,101213.28
2024-02-24T17:28:27.773Z,101230.97
2024-02-24T17:30:57.998Z,101210.19
2024-02-24T17:33:25.453Z,101213.78
2024-02-24T17:35:53.011Z,101219.06
2024-02-24T17:38:23.545Z,101231.50
2024-02-24T17:40:50.734Z,101218.41
2024-02-24T17:43:18.149Z,101204.53
2024-02-24T17:45:45.367Z,101207.06
2024-02-24T17:48:12.847Z,101208.88
2024-02-24T17:50:40.389Z,101226.28
2024-02-24T17:53:07.647Z,101228.25
2024-02-24T17:55:35.705Z,101224.78
2024-02-24T17:58:04.480Z,101232.53
2024-02-24T18:00:32.142Z,101236.22
2024-02-24T18:02:59.425Z,101238.91
2024-02-24T18:05:26.978Z,101234.50
2024-02-24T18:07:54.655Z,101245.19
2024-02-24T18:10:21.971Z,101245.19
2024-02-24T18:12:49.500Z,101246.06
2024-02-24T18:15:17.062Z,101225.06
2024-02-24T18:17:44.446Z,101236.41
2024-02-24T18:20:12.828Z,101251.56
2024-02-24T18:22:43.884Z,101246.41
2024-02-24T18:25:12.357Z,101227.34
2024-02-24T18:27:39.596Z,101242.25
2024-02-24T18:30:07.620Z,101255.44
2024-02-24T18:32:35.105Z,101251.16
2024-02-24T18:35:02.378Z,101256.31
2024-02-24T18:37:29.827Z,101246.72
2024-02-24T18:39:58.444Z,101251.09
2024-02-24T18:42:26.190Z,101240.63
2024-02-24T18:44:53.496Z,101251.91
2024-02-24T18:47:21.259Z,101235.31
2024-02-24T18:49:49.026Z,101244.03
2024-02-24T18:52:16.437Z,101228.16
2024-02-24T18:54:46.831Z,101239.47
2024-02-24T18:57:14.847Z,101237.81
2024-02-24T18:59:43.586Z,101257.00
2024-02-24T19:02:13.995Z,101257.81
2024-02-24T19:04:41.603Z,101231.50
2024-02-24T19:07:12.468Z,101248.03
2024-02-24T19:09:42.571Z,101254.25
2024-02-24T19:12:10.300Z,101240.28
2024-02-24T19:14:48.161Z,101251.69
2024-02-24T19:17:20.262Z,101258.84
2024-02-24T19:19:50.551Z,101244.91
2024-02-24T19:22:18.024Z,101268.72
2024-02-24T19:24:45.606Z,101274.06
2024-02-24T19:27:12.808Z,101257.47
2024-02-24T19:29:45.354Z,101249.69
2024-02-24T19:32:13.570Z,101244.53
2024-02-24T19:34:41.312Z,101269.78
2024-02-24T19:37:11.547Z,101261.13
2024-02-24T19:39:39.398Z,101269.88
2024-02-24T19:42:06.841Z,101269.03
2024-02-24T19:44:35.652Z,101269.97
2024-02-24T19:47:10.347Z,101269.13
2024-02-24T19:49:38.262Z,101263.03
2024-02-24T19:52:06.186Z,101274.34
2024-02-24T19:54:33.627Z,101269.03
2024-02-24T19:57:00.849Z,101257.75
2024-02-24T19:59:28.620Z,101269.09
2024-02-24T20:01:56.123Z,101269.16
2024-02-24T20:04:23.521Z,101257.00
2024-02-24T20:06:51.210Z,101265.63
2024-02-24T20:09:18.658Z,101251.69
2024-02-24T20:11:46.137Z,101262.16
2024-02-24T20:14:13.631Z,101264.88
2024-02-24T20:16:40.873Z,101247.31
2024-02-24T20:19:08.790Z,101253.47
2024-02-24T20:21:36.161Z,101240.41
2024-02-24T20:24:04.110Z,101263.19
2024-02-24T20:26:31.404Z,101255.38
2024-02-24T20:28:59.325Z,101254.53
2024-02-24T20:31:26.630Z,101264.22
2024-02-24T20:34:00.393Z,101259.94
2024-02-24T20:36:34.493Z,101250.34
2024-02-24T20:39:01.770Z,101245.09
2024-02-24T20:41:30.570Z,101269.72
2024-02-24T20:43:59.272Z,101277.78
2024-02-24T20:46:26.577Z,101277.84
2024-02-24T20:48:53.991Z,101255.16
2024-02-24T20:51:21.486Z,101256.91
2024-02-24T20:53:48.644Z,101271.00
2024-02-24T20:56:15.934Z,101267.59
2024-02-24T20:58:43.303Z,101250.19
2024-02-24T21:01:10.816Z,101269.75
2024-02-24T21:03:38.097Z,101264.56
2024-02-24T21:06:06.781Z,101261.22
2024-02-24T21:08:36.140Z,101264.03
2024-02-24T21:11:05.214Z,101255.50
2024-02-24T21:13:32.588Z,101258.16
2024-02-24T21:15:59.844Z,101270.59
2024-02-24T21:18:27.229Z,101274.16
2024-02-24T21:20:54.662Z,101274.16
2024-02-24T21:23:21.991Z,101266.19
2024-02-24T21:25:49.288Z,101260.91
2024-02-24T21:28:18.368Z,101254.00
2024-02-24T21:30:45.962Z,101257.47
2024-02-24T21:33:13.680Z,101251.38
2024-02-24T21:35:41.933Z,101267.13
2024-02-24T21:38:09.168Z,101268.97
2024-02-24T21:40:36.342Z,101264.56
2024-02-24T21:43:06.174Z,101269.09
2024-02-24T21:45:33.470Z,101267.53
2024-02-24T21:48:01.165Z,101271.97
2024-02-24T21:50:28.593Z,101263.25
2024-02-24T21:52:55.952Z,101267.59
2024-02-24T21:55:23.446Z,101275.59
2024-02-24T21:57:50.889Z,101287.97
2024-02-24T22:00:20.422Z,101280.19
2024-02-24T22:02:52.340Z,101295.97
2024-02-24T22:05:19.799Z,101292.44
2024-02-24T22:07:47.316Z,101289.78
2024-02-24T22:10:14.935Z,101290.72
2024-02-24T22:12:43.069Z,101291.66
2024-02-24T22:15:14.167Z,101249.59
2024-02-24T22:17:42.864Z,101287.22
2024-02-24T22:20:11.174Z,101255.66
2024-02-24T22:22:38.519Z,101257.53
2024-02-24T22:25:06.242Z,101281.13
2024-02-24T22:27:33.932Z,101265.44
2024-02-24T22:30:08.833Z,101280.34
2024-02-24T22:32:43.723Z,101277.75
2024-02-24T22:35:11.250Z,101271.53
2024-02-24T22:37:38.734Z,101278.66
2024-02-24T22:40:06.615Z,101276.97
2024-02-24T22:42:34.959Z,101271.69
2024-02-24T22:45:03.396Z,101268.22
2024-02-24T22:47:30.986Z,101271.00
2024-02-24T22:49:58.388Z,101280.66
2024-02-24T22:52:25.627Z,101281.63
2024-02-24T22:54:53.068Z,101256.34
2024-02-24T22:57:21.945Z,101277.31
2024-02-24T22:59:49.271Z,101276.41
2024-02-24T23:02:16.556Z,101274.66
2024-02-24T23:04:43.699Z,101244.81
2024-02-24T23:07:10.883Z,101257.88
2024-02-24T23:09:38.381Z,101252.63
2024-02-24T23:12:06.201Z,101257.00
2024-02-24T23:14:33.760Z,101250.88
2024-02-24T23:17:00.873Z,101243.00
2024-02-24T23:19:28.194Z,101240.44
2024-02-24T23:21:55.466Z,101248.34
2024-02-24T23:24:22.933Z,101244.97
2024-02-24T23:26:50.124Z,101235.34
2024-02-24T23:29:18.931Z,101233.69
2024-02-24T23:31:46.241Z,101227.56
2024-02-24T23:34:13.635Z,101228.53
2024-02-24T23:36:41.503Z,101233.88
2024-02-24T23:39:09.912Z,101221.50
2024-02-24T23:41:37.064Z,101220.63
2024-02-24T23:44:04.936Z,101210.09
2024-02-24T23:46:32.114Z,101188.91
2024-02-24T23:48:59.514Z,101203.72
2024-02-24T23:51:27.229Z,101195.66
2024-02-24T23:53:54.918Z,101191.13
2024-02-24T23:56:23.481Z,101182.28
2024-02-24T23:58:51.592Z,101177.00
